createdAt,value
2023-02-02T00:01:35.509Z,55.20
2023-02-02T00:04:03.795Z,54.30
2023-02-02T00:06:32.657Z,56.27
2023-02-02T00:09:02.585Z,55.70
2023-02-02T00:11:30.655Z,54.53
2023-02-02T00:14:00.913Z,53.80
2023-02-02T00:16:37.679Z,52.73
2023-02-02T00:19:08.060Z,52.60
2023-02-02T00:21:36.601Z,52.40
2023-02-02T00:24:05.043Z,52.00
2023-02-02T00:26:33.084Z,48.67
2023-02-02T00:29:02.586Z,48.40
2023-02-02T00:31:30.597Z,51.03
2023-02-02T00:33:59.892Z,52.27
2023-02-02T00:36:28.136Z,52.57
2023-02-02T00:38:56.162Z,54.80
2023-02-02T00:41:24.109Z,55.57
2023-02-02T00:44:06.007Z,56.40
2023-02-02T00:46:35.424Z,57.67
2023-02-02T00:49:03.385Z,57.90
2023-02-02T00:51:31.357Z,59.73
2023-02-02T00:53:59.294Z,59.60
2023-02-02T00:56:27.186Z,59.60
2023-02-02T00:58:55.156Z,62.90
2023-02-02T01:01:23.869Z,61.73
2023-02-02T01:03:53.354Z,64.20
2023-02-02T01:06:21.567Z,62.87
2023-02-02T01:08:49.508Z,64.93
2023-02-02T01:11:17.705Z,63.70
2023-02-02T01:13:45.825Z,64.37
2023-02-02T01:16:14.185Z,61.47
2023-02-02T01:18:42.174Z,65.50
2023-02-02T01:21:13.000Z,62.13
2023-02-02T01:23:41.570Z,61.30
2023-02-02T01:26:11.416Z,62.10
2023-02-02T01:28:40.211Z,61.50
2023-02-02T01:31:10.140Z,61.03
2023-02-02T01:33:38.791Z,62.30
2023-02-02T01:36:09.307Z,62.67
2023-02-02T01:38:38.999Z,62.90
2023-02-02T01:41:07.604Z,64.80
2023-02-02T01:43:55.036Z,68.17
2023-02-02T01:46:25.463Z,69.57
2023-02-02T01:48:58.034Z,68.30
2023-02-02T01:51:30.698Z,68.27
2023-02-02T01:54:01.747Z,70.67
2023-02-02T01:56:33.706Z,71.20
2023-02-02T01:59:02.450Z,72.83
2023-02-02T02:01:30.600Z,74.47
2023-02-02T02:03:58.660Z,74.80
2023-02-02T02:06:27.309Z,74.60
2023-02-02T02:09:01.292Z,77.17
2023-02-02T02:11:29.227Z,75.73
2023-02-02T02:14:18.204Z,77.43
2023-02-02T02:17:12.773Z,75.00
2023-02-02T02:20:33.553Z,70.57
2023-02-02T02:23:40.310Z,72.47
2023-02-02T02:26:35.388Z,71.77
2023-02-02T02:29:30.210Z,71.60
2023-02-02T02:32:22.803Z,72.53
2023-02-02T02:34:56.222Z,70.40
2023-02-02T02:37:32.447Z,68.27
2023-02-02T02:40:07.682Z,71.27
2023-02-02T02:42:40.257Z,70.50
2023-02-02T02:45:10.592Z,66.07
2023-02-02T02:47:41.766Z,65.30
2023-02-02T02:50:10.997Z,65.00
2023-02-02T02:52:40.345Z,67.10
2023-02-02T02:55:11.785Z,65.10
2023-02-02T02:57:48.570Z,65.17
2023-02-02T03:00:30.660Z,65.33
2023-02-02T03:03:08.724Z,62.37
2023-02-02T03:05:48.231Z,60.83
2023-02-02T03:08:22.122Z,61.23
2023-02-02T03:10:50.316Z,59.53
2023-02-02T03:13:18.869Z,60.07
2023-02-02T03:15:47.238Z,61.60
2023-02-02T03:18:19.780Z,60.70
2023-02-02T03:20:48.071Z,60.10
2023-02-02T03:23:16.015Z,63.30
2023-02-02T03:25:45.180Z,59.77
2023-02-02T03:28:13.479Z,60.27
2023-02-02T03:30:42.872Z,58.97
2023-02-02T03:33:11.883Z,59.10
2023-02-02T03:35:41.151Z,59.37
2023-02-02T03:38:09.181Z,60.77
2023-02-02T03:40:37.329Z,59.80
2023-02-02T03:43:05.577Z,61.40
2023-02-02T03:45:35.341Z,62.70
2023-02-02T03:48:05.635Z,61.50
2023-02-02T03:50:33.931Z,60.33
2023-02-02T03:53:03.222Z,59.30
2023-02-02T03:55:31.120Z,58.07
2023-02-02T03:57:59.052Z,58.23
2023-02-02T04:00:26.993Z,59.07
2023-02-02T04:02:56.053Z,59.70
2023-02-02T04:05:24.266Z,57.40
2023-02-02T04:07:52.331Z,57.90
2023-02-02T04:10:21.810Z,58.67
2023-02-02T04:12:49.768Z,57.07
2023-02-02T04:15:17.857Z,56.50
2023-02-02T04:17:45.812Z,55.87
2023-02-02T04:20:13.836Z,54.90
2023-02-02T04:22:41.754Z,55.10
2023-02-02T04:25:09.998Z,55.97
2023-02-02T04:27:39.303Z,54.83
2023-02-02T04:30:08.994Z,53.33
2023-02-02T04:32:36.952Z,53.83
2023-02-02T04:35:05.452Z,53.93
2023-02-02T04:37:33.632Z,54.07
2023-02-02T04:40:01.572Z,51.70
2023-02-02T04:42:32.154Z,50.57
2023-02-02T04:45:01.414Z,51.30
2023-02-02T04:47:29.337Z,53.00
2023-02-02T04:49:57.215Z,54.63
2023-02-02T04:52:25.097Z,55.17
2023-02-02T04:54:53.004Z,57.37
2023-02-02T04:57:20.923Z,56.67
2023-02-02T04:59:48.844Z,54.17
2023-02-02T05:02:18.128Z,53.20
2023-02-02T05:04:46.162Z,53.37
2023-02-02T05:07:14.400Z,52.33
2023-02-02T05:09:42.308Z,52.67
2023-02-02T05:12:10.238Z,48.00
2023-02-02T05:14:38.105Z,50.70
2023-02-02T05:17:06.112Z,48.47
2023-02-02T05:19:35.359Z,50.40
2023-02-02T05:22:03.275Z,48.20
2023-02-02T05:24:31.200Z,49.00
2023-02-02T05:27:00.691Z,48.07
2023-02-02T05:29:28.719Z,48.70
2023-02-02T05:31:56.729Z,49.20
2023-02-02T05:34:24.697Z,49.20
2023-02-02T05:36:53.985Z,48.70
2023-02-02T05:39:21.894Z,49.60
2023-02-02T05:41:49.808Z,49.33
2023-02-02T05:44:17.724Z,48.20
2023-02-02T05:46:46.049Z,46.97
2023-02-02T05:49:15.345Z,47.93
2023-02-02T05:51:46.191Z,45.37
2023-02-02T05:54:19.427Z,44.57
2023-02-02T05:56:47.562Z,45.37
2023-02-02T05:59:15.451Z,47.83
2023-02-02T06:01:43.395Z,45.77
2023-02-02T06:04:11.391Z,45.53
2023-02-02T06:06:39.901Z,46.30
2023-02-02T06:09:08.453Z,45.40
2023-02-02T06:11:39.479Z,46.47
2023-02-02T06:14:08.224Z,45.93
2023-02-02T06:16:36.195Z,44.50
2023-02-02T06:19:04.856Z,44.90
2023-02-02T06:21:33.316Z,43.73
2023-02-02T06:24:02.200Z,42.10
2023-02-02T06:26:30.697Z,43.17
2023-02-02T06:29:00.098Z,43.53
2023-02-02T06:31:28.230Z,44.30
2023-02-02T06:33:58.018Z,44.30
2023-02-02T06:36:27.463Z,44.87
2023-02-02T06:38:57.015Z,44.70
2023-02-02T06:41:25.825Z,45.03
2023-02-02T06:43:53.875Z,44.40
2023-02-02T06:46:23.325Z,42.00
2023-02-02T06:48:51.456Z,43.20
2023-02-02T06:51:20.078Z,44.70
2023-02-02T06:53:49.298Z,44.17
2023-02-02T06:56:17.800Z,45.17
2023-02-02T06:58:46.195Z,44.80
2023-02-02T07:01:15.340Z,47.08
2023-02-02T07:03:44.847Z,48.80
2023-02-02T07:06:15.099Z,46.70
2023-02-02T07:08:43.824Z,44.70
2023-02-02T07:11:15.942Z,45.00
2023-02-02T07:13:44.759Z,46.63
2023-02-02T07:16:13.978Z,47.20
2023-02-02T07:18:44.334Z,50.53
2023-02-02T07:21:18.692Z,49.03
2023-02-02T07:23:46.991Z,48.10
2023-02-02T07:26:16.245Z,44.80
2023-02-02T07:28:45.041Z,45.77
2023-02-02T07:31:19.699Z,44.37
2023-02-02T07:33:50.035Z,44.57
2023-02-02T07:36:20.793Z,47.00
2023-02-02T07:38:49.982Z,51.40
2023-02-02T07:41:17.992Z,48.97
2023-02-02T07:43:48.664Z,50.80
2023-02-02T07:46:18.091Z,52.40
2023-02-02T07:48:49.716Z,48.43
2023-02-02T07:51:19.425Z,52.03
2023-02-02T07:53:48.660Z,51.63
2023-02-02T07:56:18.337Z,50.23
2023-02-02T07:58:46.587Z,52.20
2023-02-02T08:01:16.418Z,50.33
2023-02-02T08:03:44.583Z,53.63
2023-02-02T08:06:16.872Z,52.13
2023-02-02T08:08:45.039Z,51.20
2023-02-02T08:11:15.172Z,53.33
2023-02-02T08:13:44.341Z,52.67
2023-02-02T08:16:13.329Z,48.87
2023-02-02T08:18:42.283Z,51.10
2023-02-02T08:21:10.669Z,49.00
2023-02-02T08:23:41.784Z,48.20
2023-02-02T08:26:12.230Z,46.93
2023-02-02T08:28:41.470Z,48.63
2023-02-02T08:31:11.815Z,45.17
2023-02-02T08:33:40.188Z,45.20
2023-02-02T08:36:12.983Z,43.80
2023-02-02T08:38:42.692Z,45.00
2023-02-02T08:41:13.346Z,45.50
2023-02-02T08:43:42.178Z,47.27
2023-02-02T08:46:12.972Z,47.20
2023-02-02T08:48:42.018Z,45.10
2023-02-02T08:51:12.397Z,44.03
2023-02-02T08:53:41.857Z,47.50
2023-02-02T08:56:12.304Z,46.60
2023-02-02T08:58:40.966Z,46.70
2023-02-02T09:01:12.774Z,43.37
2023-02-02T09:03:41.879Z,43.60
2023-02-02T09:06:11.662Z,41.03
2023-02-02T09:08:40.202Z,40.50
2023-02-02T09:11:11.875Z,41.73
2023-02-02T09:13:41.345Z,43.17
2023-02-02T09:16:12.150Z,41.87
2023-02-02T09:18:41.145Z,41.50
2023-02-02T09:21:12.064Z,42.03
2023-02-02T09:23:41.976Z,39.90
2023-02-02T09:26:13.542Z,39.43
2023-02-02T09:28:43.395Z,40.93
2023-02-02T09:31:12.407Z,39.53
2023-02-02T09:33:41.995Z,39.20
2023-02-02T09:36:12.900Z,38.57
2023-02-02T09:38:41.938Z,37.27
2023-02-02T09:41:56.122Z,37.70
2023-02-02T09:44:48.176Z,35.27
2023-02-02T09:47:21.257Z,34.97
2023-02-02T09:50:04.783Z,32.47
2023-02-02T09:52:37.352Z,33.67
2023-02-02T09:55:13.232Z,34.87
2023-02-02T09:57:46.900Z,33.47
2023-02-02T10:00:27.142Z,36.60
2023-02-02T10:03:00.981Z,38.90
2023-02-02T10:05:33.629Z,35.73
2023-02-02T10:08:04.566Z,35.77
2023-02-02T10:10:37.316Z,38.43
2023-02-02T10:13:12.129Z,33.60
2023-02-02T10:15:44.035Z,33.33
2023-02-02T10:18:20.253Z,33.90
2023-02-02T10:20:55.763Z,35.00
2023-02-02T10:23:28.025Z,34.33
2023-02-02T10:25:59.080Z,34.20
2023-02-02T10:28:44.610Z,32.67
2023-02-02T10:31:21.086Z,31.10
2023-02-02T10:33:59.265Z,32.10
2023-02-02T10:36:34.380Z,31.53
2023-02-02T10:39:11.171Z,31.87
2023-02-02T10:41:49.569Z,29.07
2023-02-02T10:44:35.045Z,31.17
2023-02-02T10:47:07.833Z,30.40
2023-02-02T10:49:38.713Z,28.73
2023-02-02T10:52:17.222Z,30.20
2023-02-02T10:54:57.939Z,29.33
2023-02-02T10:57:39.158Z,29.60
2023-02-02T11:00:22.919Z,29.60
2023-02-02T11:02:52.399Z,29.30
2023-02-02T11:05:41.257Z,29.90
2023-02-02T11:08:15.455Z,27.97
2023-02-02T11:10:45.194Z,27.80
2023-02-02T11:13:20.341Z,27.00
2023-02-02T11:15:49.763Z,27.03
2023-02-02T11:18:29.613Z,27.73
2023-02-02T11:20:58.786Z,28.60
2023-02-02T11:23:29.158Z,26.53
2023-02-02T11:26:02.263Z,26.87
2023-02-02T11:28:36.748Z,25.23
2023-02-02T11:31:06.306Z,24.77
2023-02-02T11:33:36.179Z,25.13
2023-02-02T11:36:06.835Z,24.40
2023-02-02T11:38:34.999Z,23.40
2023-02-02T11:41:07.105Z,24.23
2023-02-02T11:43:41.303Z,24.93
2023-02-02T11:46:20.691Z,25.00
2023-02-02T11:48:52.011Z,23.67
2023-02-02T11:51:24.889Z,23.60
2023-02-02T11:54:03.717Z,22.90
2023-02-02T11:56:32.039Z,23.10
2023-02-02T11:59:03.728Z,22.83
2023-02-02T12:01:35.920Z,22.33
2023-02-02T12:04:22.727Z,23.07
2023-02-02T12:06:50.874Z,23.23
2023-02-02T12:09:22.935Z,23.53
2023-02-02T12:12:02.153Z,23.37
2023-02-02T12:14:38.372Z,23.00
2023-02-02T12:17:22.239Z,23.50
2023-02-02T12:20:31.636Z,24.57
2023-02-02T12:23:19.523Z,24.40
2023-02-02T12:26:02.451Z,24.00
2023-02-02T12:28:44.833Z,24.73
2023-02-02T12:31:27.879Z,23.23
2023-02-02T12:34:04.603Z,26.30
2023-02-02T12:36:46.640Z,26.37
2023-02-02T12:39:35.562Z,27.83
2023-02-02T12:42:29.245Z,30.53
2023-02-02T12:45:17.203Z,34.00
2023-02-02T12:47:57.689Z,33.67
2023-02-02T12:50:31.834Z,35.03
2023-02-02T12:53:19.206Z,38.43
2023-02-02T12:55:54.494Z,40.30
2023-02-02T12:58:34.031Z,39.10
2023-02-02T13:01:23.900Z,40.13
2023-02-02T13:04:10.575Z,41.10
2023-02-02T13:07:15.230Z,42.20
2023-02-02T13:09:49.819Z,43.20
2023-02-02T13:12:21.026Z,46.87
2023-02-02T13:14:51.911Z,45.60
2023-02-02T13:17:26.389Z,44.57
2023-02-02T13:19:58.857Z,44.90
2023-02-02T13:22:34.408Z,45.73
2023-02-02T13:25:09.416Z,46.33
2023-02-02T13:27:39.974Z,50.20
2023-02-02T13:30:23.935Z,53.23
2023-02-02T13:32:56.032Z,59.37
2023-02-02T13:35:28.454Z,59.47
2023-02-02T13:38:04.046Z,62.07
2023-02-02T13:40:37.073Z,65.57
2023-02-02T13:43:18.989Z,66.90
2023-02-02T13:45:58.315Z,68.13
2023-02-02T13:48:36.549Z,68.10
2023-02-02T13:51:40.447Z,69.57
2023-02-02T13:54:39.993Z,70.17
2023-02-02T13:57:21.514Z,70.17
2023-02-02T14:00:01.745Z,69.97
2023-02-02T14:02:35.972Z,71.33
2023-02-02T14:05:08.780Z,71.20
2023-02-02T14:07:42.096Z,72.43
2023-02-02T14:10:25.238Z,70.50
2023-02-02T14:12:56.924Z,72.53
2023-02-02T14:15:39.963Z,70.83
2023-02-02T14:18:08.498Z,75.03
2023-02-02T14:20:47.997Z,71.50
2023-02-02T14:23:51.255Z,69.60
2023-02-02T14:26:40.385Z,69.23
2023-02-02T14:29:39.646Z,68.70
2023-02-02T14:32:34.747Z,68.80
2023-02-02T14:35:45.972Z,67.93
2023-02-02T14:38:19.639Z,67.37
2023-02-02T14:40:54.037Z,66.73
2023-02-02T14:43:44.470Z,68.57
2023-02-02T14:46:48.333Z,62.50
2023-02-02T14:49:29.880Z,69.47
2023-02-02T14:52:03.151Z,65.93
2023-02-02T14:54:35.842Z,64.67
2023-02-02T14:57:07.894Z,65.00
2023-02-02T14:59:38.739Z,67.73
2023-02-02T15:02:24.650Z,69.50
2023-02-02T15:04:53.163Z,67.50
2023-02-02T15:07:56.514Z,70.47
2023-02-02T15:11:28.146Z,70.67
2023-02-02T15:14:11.296Z,64.70
2023-02-02T15:16:42.734Z,63.67
2023-02-02T15:19:32.505Z,68.60
2023-02-02T15:22:11.156Z,66.00
2023-02-02T15:24:40.473Z,58.10
2023-02-02T15:27:16.632Z,61.27
2023-02-02T15:29:48.229Z,61.77
2023-02-02T15:32:20.538Z,62.20
2023-02-02T15:34:52.972Z,61.47
2023-02-02T15:37:24.142Z,62.50
2023-02-02T15:39:53.917Z,60.90
2023-02-02T15:42:43.156Z,61.53
2023-02-02T15:45:34.906Z,61.03
2023-02-02T15:48:10.232Z,62.20
2023-02-02T15:50:46.483Z,60.23
2023-02-02T15:53:20.730Z,62.83
2023-02-02T15:55:49.441Z,62.60
2023-02-02T15:58:27.728Z,63.87
2023-02-02T16:01:03.210Z,63.57
2023-02-02T16:03:46.821Z,67.37
2023-02-02T16:06:18.401Z,67.03
2023-02-02T16:08:48.131Z,67.90
2023-02-02T16:11:18.519Z,68.17
2023-02-02T16:13:59.651Z,70.60
2023-02-02T16:16:29.824Z,69.17
2023-02-02T16:19:07.509Z,67.63
2023-02-02T16:21:45.498Z,69.33
2023-02-02T16:24:18.015Z,66.93
2023-02-02T16:26:47.862Z,67.63
2023-02-02T16:29:17.397Z,69.03
2023-02-02T16:31:46.631Z,68.63
2023-02-02T16:34:18.515Z,66.20
2023-02-02T16:37:05.414Z,68.50
2023-02-02T16:39:33.400Z,65.03
2023-02-02T16:42:10.727Z,66.03
2023-02-02T16:44:42.871Z,64.43
2023-02-02T16:47:37.802Z,63.70
2023-02-02T16:50:27.104Z,59.83
2023-02-02T16:52:58.900Z,65.50
2023-02-02T16:55:43.449Z,63.13
2023-02-02T16:58:20.702Z,61.43
2023-02-02T17:01:14.871Z,58.97
2023-02-02T17:03:51.481Z,65.57
2023-02-02T17:06:38.386Z,60.47
2023-02-02T17:09:28.845Z,61.80
2023-02-02T17:11:59.995Z,62.53
2023-02-02T17:14:35.028Z,61.07
2023-02-02T17:17:05.354Z,60.87
2023-02-02T17:19:33.878Z,60.90
2023-02-02T17:22:05.487Z,64.50
2023-02-02T17:24:35.709Z,59.17
2023-02-02T17:27:04.551Z,65.13
2023-02-02T17:29:32.931Z,63.43
2023-02-02T17:32:00.945Z,63.50
2023-02-02T17:34:30.637Z,64.33
2023-02-02T17:36:59.042Z,64.43
2023-02-02T17:39:27.027Z,64.87
2023-02-02T17:41:56.443Z,64.13
2023-02-02T17:44:24.416Z,64.83
2023-02-02T17:46:52.442Z,62.60
2023-02-02T17:49:21.249Z,63.93
2023-02-02T17:51:50.619Z,62.13
2023-02-02T17:54:18.789Z,63.27
2023-02-02T17:56:47.257Z,62.67
2023-02-02T17:59:16.572Z,64.93
2023-02-02T18:01:45.469Z,62.97
2023-02-02T18:04:15.231Z,65.90
2023-02-02T18:06:43.238Z,66.30
2023-02-02T18:09:11.556Z,65.93
2023-02-02T18:11:42.372Z,64.13
2023-02-02T18:14:10.888Z,64.72
2023-02-02T18:16:40.290Z,63.03
2023-02-02T18:19:08.356Z,63.88
2023-02-02T18:21:36.381Z,62.50
2023-02-02T18:24:04.610Z,64.43
2023-02-02T18:26:34.482Z,61.57
2023-02-02T18:29:02.492Z,63.00
2023-02-02T18:31:31.153Z,60.63
2023-02-02T18:34:00.637Z,62.47
2023-02-02T18:36:28.640Z,61.30
2023-02-02T18:38:57.978Z,62.00
2023-02-02T18:41:26.092Z,64.17
2023-02-02T18:43:55.182Z,63.50
2023-02-02T18:46:23.311Z,61.47
2023-02-02T18:48:51.327Z,59.50
2023-02-02T18:51:21.938Z,60.13
2023-02-02T18:53:50.286Z,59.70
2023-02-02T18:56:18.344Z,58.00
2023-02-02T18:58:46.380Z,59.87
2023-02-02T19:01:17.224Z,62.53
2023-02-02T19:03:49.905Z,59.47
2023-02-02T19:06:35.928Z,58.37
2023-02-02T19:09:05.916Z,59.23
2023-02-02T19:11:38.927Z,60.20
2023-02-02T19:14:13.392Z,60.50
2023-02-02T19:16:41.701Z,58.13
2023-02-02T19:19:16.350Z,56.43
2023-02-02T19:21:44.529Z,56.90
2023-02-02T19:24:14.898Z,57.80
2023-02-02T19:26:47.051Z,55.40
2023-02-02T19:29:19.271Z,56.93
2023-02-02T19:31:47.874Z,55.87
2023-02-02T19:34:20.803Z,58.10
2023-02-02T19:36:51.050Z,59.10
2023-02-02T19:39:21.711Z,60.30
2023-02-02T19:41:49.982Z,63.20
2023-02-02T19:44:20.817Z,63.33
2023-02-02T19:46:51.478Z,62.40
2023-02-02T19:49:25.542Z,65.17
2023-02-02T19:51:55.699Z,64.43
2023-02-02T19:54:29.024Z,64.37
2023-02-02T19:56:59.825Z,68.73
2023-02-02T19:59:34.198Z,61.67
2023-02-02T20:02:41.838Z,61.23
2023-02-02T20:05:19.263Z,64.20
2023-02-02T20:07:47.842Z,66.53
2023-02-02T20:10:21.414Z,66.73
2023-02-02T20:12:49.856Z,70.17
2023-02-02T20:15:26.909Z,65.43
2023-02-02T20:17:58.137Z,64.87
2023-02-02T20:20:29.480Z,66.67
2023-02-02T20:22:58.454Z,70.00
2023-02-02T20:25:29.186Z,67.50
2023-02-02T20:27:58.900Z,67.30
2023-02-02T20:30:30.757Z,66.67
2023-02-02T20:33:01.474Z,68.40
2023-02-02T20:35:39.367Z,65.83
2023-02-02T20:38:18.875Z,65.33
2023-02-02T20:40:48.291Z,66.17
2023-02-02T20:43:16.331Z,68.53
2023-02-02T20:45:44.459Z,63.37
2023-02-02T20:48:14.108Z,66.10
2023-02-02T20:50:43.125Z,66.77
2023-02-02T20:53:11.377Z,66.33
2023-02-02T20:55:39.391Z,71.40
2023-02-02T20:58:09.798Z,63.50
2023-02-02T21:00:38.177Z,64.73
2023-02-02T21:03:06.213Z,66.50
2023-02-02T21:05:34.619Z,69.80
2023-02-02T21:08:02.663Z,67.90
2023-02-02T21:10:30.670Z,68.30
2023-02-02T21:12:58.719Z,66.00
2023-02-02T21:15:28.326Z,65.10
2023-02-02T21:17:56.174Z,63.47
2023-02-02T21:20:24.448Z,65.63
2023-02-02T21:22:52.608Z,67.03
2023-02-02T21:25:21.640Z,64.23
2023-02-02T21:27:49.650Z,63.57
2023-02-02T21:30:18.172Z,66.20
2023-02-02T21:32:47.625Z,68.70
2023-02-02T21:35:15.760Z,65.40
2023-02-02T21:37:46.258Z,63.27
2023-02-02T21:40:22.434Z,66.50
2023-02-02T21:42:51.061Z,64.90
2023-02-02T21:45:37.082Z,67.23
2023-02-02T21:48:21.419Z,64.60
2023-02-02T21:50:49.453Z,64.37
2023-02-02T21:53:22.294Z,61.20
2023-02-02T21:55:53.414Z,60.33
2023-02-02T21:58:24.856Z,61.63
2023-02-02T22:00:53.667Z,62.60
2023-02-02T22:03:30.506Z,62.87
2023-02-02T22:06:06.892Z,57.23
2023-02-02T22:08:37.172Z,62.30
2023-02-02T22:11:10.385Z,61.70
2023-02-02T22:13:38.469Z,58.93
2023-02-02T22:16:14.710Z,63.67
2023-02-02T22:18:44.160Z,57.13
2023-02-02T22:21:14.856Z,59.10
2023-02-02T22:23:43.011Z,62.77
2023-02-02T22:26:27.615Z,59.50
2023-02-02T22:28:55.693Z,55.37
2023-02-02T22:31:23.739Z,58.60
2023-02-02T22:33:54.105Z,54.07
2023-02-02T22:36:22.120Z,54.93
2023-02-02T22:38:50.076Z,53.83
2023-02-02T22:41:18.047Z,54.80
2023-02-02T22:43:46.030Z,59.63
2023-02-02T22:46:14.162Z,59.60
2023-02-02T22:48:42.190Z,60.07
2023-02-02T22:51:11.489Z,61.73
2023-02-02T22:53:39.448Z,59.13
2023-02-02T22:56:08.034Z,62.00
2023-02-02T22:58:35.995Z,58.17
2023-02-02T23:01:04.896Z,58.33
2023-02-02T23:03:32.995Z,56.70
2023-02-02T23:06:02.035Z,60.83
2023-02-02T23:08:32.421Z,58.03
2023-02-02T23:11:00.502Z,57.20
2023-02-02T23:13:28.535Z,57.10
2023-02-02T23:15:56.688Z,57.90
2023-02-02T23:18:24.565Z,57.67
2023-02-02T23:20:52.620Z,56.13
2023-02-02T23:23:22.291Z,55.60
2023-02-02T23:25:51.648Z,52.70
2023-02-02T23:28:19.704Z,49.97
2023-02-02T23:30:48.038Z,50.60
2023-02-02T23:33:16.065Z,51.87
2023-02-02T23:35:44.010Z,52.30
2023-02-02T23:38:13.362Z,53.10
2023-02-02T23:40:41.436Z,52.10
2023-02-02T23:43:10.952Z,52.60
2023-02-02T23:45:39.569Z,51.47
2023-02-02T23:48:08.360Z,50.63
2023-02-02T23:50:38.416Z,48.10
2023-02-02T23:53:07.184Z,49.57
2023-02-02T23:55:35.309Z,49.20
2023-02-02T23:58:03.773Z,48.27
